sensor_id;sensor_type;location;lat;lon;timestamp;pressure;altitude;pressure_sealevel;temperature;humidity
28626;BME280;18905;42.668;23.364;2022-08-11T00:00:35;95216.59;;;23.49;100.00
28626;BME280;18905;42.668;23.364;2022-08-11T00:03:06;95209.94;;;23.05;100.00
28626;BME280;18905;42.668;23.364;2022-08-11T00:05:35;95211.88;;;23.15;100.00
28626;BME280;18905;42.668;23.364;2022-08-11T00:08:08;95210.72;;;23.30;100.00
28626;BME280;18905;42.668;23.364;2022-08-11T00:10:36;95198.91;;;23.05;100.00
28626;BME280;18905;42.668;23.364;2022-08-11T00:13:04;95210.69;;;22.84;100.00
28626;BME280;18905;42.668;23.364;2022-08-11T00:15:40;95183.91;;;22.57;100.00
28626;BME280;18905;42.668;23.364;2022-08-11T00:18:07;95176.41;;;22.43;100.00
28626;BME280;18905;42.668;23.364;2022-08-11T00:20:36;95201.81;;;22.02;100.00
28626;BME280;18905;42.668;23.364;2022-08-11T00:23:15;95171.16;;;21.93;100.00
28626;BME280;18905;42.668;23.364;2022-08-11T00:25:46;95178.22;;;21.90;100.00
28626;BME280;18905;42.668;23.364;2022-08-11T00:28:33;95198.56;;;21.79;100.00
28626;BME280;18905;42.668;23.364;2022-08-11T00:31:04;95215.69;;;21.48;100.00
28626;BME280;18905;42.668;23.364;2022-08-11T00:33:43;95210.63;;;21.60;100.00
28626;BME280;18905;42.668;23.364;2022-08-11T00:36:14;95199.69;;;21.10;100.00
28626;BME280;18905;42.668;23.364;2022-08-11T00:38:41;95205.97;;;21.07;100.00
28626;BME280;18905;42.668;23.364;2022-08-11T00:46:58;95207.19;;;20.32;100.00
28626;BME280;18905;42.668;23.364;2022-08-11T00:49:41;95220.56;;;20.04;100.00
28626;BME280;18905;42.668;23.364;2022-08-11T00:52:16;95205.63;;;20.31;100.00
28626;BME280;18905;42.668;23.364;2022-08-11T01:00:17;95213.53;;;20.36;100.00
28626;BME280;18905;42.668;23.364;2022-08-11T01:02:51;95194.13;;;20.15;100.00
28626;BME280;18905;42.668;23.364;2022-08-11T01:17:30;95202.47;;;20.69;100.00
28626;BME280;18905;42.668;23.364;2022-08-11T01:54:20;95186.94;;;19.45;100.00
28626;BME280;18905;42.668;23.364;2022-08-11T01:59:33;95182.38;;;20.55;100.00
28626;BME280;18905;42.668;23.364;2022-08-11T02:02:21;95186.06;;;20.73;100.00
28626;BME280;18905;42.668;23.364;2022-08-11T02:05:16;95192.53;;;20.54;100.00
28626;BME280;18905;42.668;23.364;2022-08-11T02:22:54;95191.59;;;20.03;100.00
28626;BME280;18905;42.668;23.364;2022-08-11T02:25:58;95191.66;;;20.43;100.00
28626;BME280;18905;42.668;23.364;2022-08-11T02:28:33;95188.97;;;20.50;100.00
28626;BME280;18905;42.668;23.364;2022-08-11T02:31:06;95194.56;;;20.61;100.00
28626;BME280;18905;42.668;23.364;2022-08-11T02:34:02;95194.28;;;20.73;100.00
28626;BME280;18905;42.668;23.364;2022-08-11T02:42:51;95191.97;;;21.26;100.00
28626;BME280;18905;42.668;23.364;2022-08-11T02:51:02;95150.41;;;20.76;100.00
28626;BME280;18905;42.668;23.364;2022-08-11T02:53:38;95185.75;;;21.36;100.00
28626;BME280;18905;42.668;23.364;2022-08-11T03:10:26;95192.50;;;20.14;100.00
28626;BME280;18905;42.668;23.364;2022-08-11T03:13:03;95182.94;;;20.34;100.00
28626;BME280;18905;42.668;23.364;2022-08-11T03:16:15;95200.72;;;20.47;100.00
28626;BME280;18905;42.668;23.364;2022-08-11T03:22:18;95198.16;;;20.68;100.00
28626;BME280;18905;42.668;23.364;2022-08-11T03:25:02;95193.44;;;20.65;100.00
28626;BME280;18905;42.668;23.364;2022-08-11T03:27:52;95189.78;;;20.54;100.00
28626;BME280;18905;42.668;23.364;2022-08-11T03:30:45;95164.50;;;20.31;100.00
28626;BME280;18905;42.668;23.364;2022-08-11T03:33:28;95184.78;;;20.63;100.00
28626;BME280;18905;42.668;23.364;2022-08-11T03:41:35;95196.34;;;22.05;100.00
28626;BME280;18905;42.668;23.364;2022-08-11T03:52:57;95197.31;;;22.69;100.00
28626;BME280;18905;42.668;23.364;2022-08-11T04:06:45;95200.50;;;23.41;100.00
28626;BME280;18905;42.668;23.364;2022-08-11T04:19:06;95200.25;;;24.90;88.22
28626;BME280;18905;42.668;23.364;2022-08-11T04:24:57;95208.00;;;24.51;79.50
28626;BME280;18905;42.668;23.364;2022-08-11T04:38:55;95207.28;;;27.36;55.89
28626;BME280;18905;42.668;23.364;2022-08-11T04:41:52;95208.38;;;27.65;59.85
28626;BME280;18905;42.668;23.364;2022-08-11T04:45:04;95207.56;;;27.64;56.88
28626;BME280;18905;42.668;23.364;2022-08-11T04:56:19;95218.34;;;25.49;76.62
28626;BME280;18905;42.668;23.364;2022-08-11T05:13:33;95213.41;;;22.63;100.00
28626;BME280;18905;42.668;23.364;2022-08-11T05:16:25;95223.72;;;23.40;98.28
28626;BME280;18905;42.668;23.364;2022-08-11T05:19:16;95215.13;;;24.45;92.24
28626;BME280;18905;42.668;23.364;2022-08-11T05:22:02;95221.38;;;24.56;92.35
28626;BME280;18905;42.668;23.364;2022-08-11T05:24:55;95212.28;;;22.92;100.00
28626;BME280;18905;42.668;23.364;2022-08-11T05:28:10;95216.53;;;23.91;96.85
28626;BME280;18905;42.668;23.364;2022-08-11T05:30:59;95217.72;;;23.87;96.94
28626;BME280;18905;42.668;23.364;2022-08-11T05:34:08;95208.75;;;23.13;100.00
28626;BME280;18905;42.668;23.364;2022-08-11T05:37:01;95214.50;;;24.06;96.55
28626;BME280;18905;42.668;23.364;2022-08-11T05:39:32;95204.94;;;25.00;88.71
28626;BME280;18905;42.668;23.364;2022-08-11T05:42:20;95200.44;;;23.62;97.47
28626;BME280;18905;42.668;23.364;2022-08-11T05:45:12;95211.84;;;23.74;99.83
28626;BME280;18905;42.668;23.364;2022-08-11T05:47:57;95211.31;;;24.21;96.42
28626;BME280;18905;42.668;23.364;2022-08-11T05:50:50;95218.16;;;23.50;100.00
28626;BME280;18905;42.668;23.364;2022-08-11T05:53:34;95207.75;;;24.17;98.19
28626;BME280;18905;42.668;23.364;2022-08-11T05:56:26;95200.13;;;24.42;96.03
28626;BME280;18905;42.668;23.364;2022-08-11T05:58:53;95174.63;;;24.89;88.62
28626;BME280;18905;42.668;23.364;2022-08-11T06:01:23;95194.81;;;25.34;85.39
28626;BME280;18905;42.668;23.364;2022-08-11T06:03:54;95201.00;;;25.85;82.50
28626;BME280;18905;42.668;23.364;2022-08-11T06:07:02;95202.88;;;25.95;82.84
28626;BME280;18905;42.668;23.364;2022-08-11T06:09:35;95202.16;;;25.88;81.67
28626;BME280;18905;42.668;23.364;2022-08-11T06:12:06;95200.31;;;24.11;93.45
28626;BME280;18905;42.668;23.364;2022-08-11T06:14:33;95212.06;;;24.22;96.66
28626;BME280;18905;42.668;23.364;2022-08-11T06:17:02;95150.53;;;22.65;100.00
28626;BME280;18905;42.668;23.364;2022-08-11T06:19:37;95168.19;;;23.45;100.00
28626;BME280;18905;42.668;23.364;2022-08-11T06:22:05;95204.13;;;24.38;99.86
28626;BME280;18905;42.668;23.364;2022-08-11T06:24:34;95156.75;;;23.57;100.00
28626;BME280;18905;42.668;23.364;2022-08-11T06:27:02;95193.41;;;22.94;100.00
28626;BME280;18905;42.668;23.364;2022-08-11T06:29:31;95203.53;;;23.81;100.00
28626;BME280;18905;42.668;23.364;2022-08-11T06:31:59;95174.22;;;24.91;91.87
28626;BME280;18905;42.668;23.364;2022-08-11T06:34:52;95122.28;;;24.72;85.87
28626;BME280;18905;42.668;23.364;2022-08-11T06:43:02;95193.34;;;26.00;77.51
28626;BME280;18905;42.668;23.364;2022-08-11T06:48:02;95199.88;;;26.16;82.78
28626;BME280;18905;42.668;23.364;2022-08-11T06:50:31;95159.81;;;26.54;70.64
28626;BME280;18905;42.668;23.364;2022-08-11T06:53:17;95183.06;;;27.13;68.00
28626;BME280;18905;42.668;23.364;2022-08-11T06:55:45;95198.22;;;27.32;69.42
28626;BME280;18905;42.668;23.364;2022-08-11T06:58:34;95205.19;;;27.17;67.50
28626;BME280;18905;42.668;23.364;2022-08-11T07:04:27;95184.28;;;25.99;73.54
28626;BME280;18905;42.668;23.364;2022-08-11T07:13:41;95196.94;;;27.13;69.65
28626;BME280;18905;42.668;23.364;2022-08-11T07:23:10;95211.19;;;27.12;62.87
28626;BME280;18905;42.668;23.364;2022-08-11T07:25:56;95197.53;;;26.75;66.14
28626;BME280;18905;42.668;23.364;2022-08-11T07:28:46;95195.03;;;26.57;66.25
28626;BME280;18905;42.668;23.364;2022-08-11T07:31:34;95183.94;;;25.90;69.52
28626;BME280;18905;42.668;23.364;2022-08-11T07:36:56;95189.13;;;26.22;67.70
28626;BME280;18905;42.668;23.364;2022-08-11T07:39:33;95200.88;;;26.89;64.10
28626;BME280;18905;42.668;23.364;2022-08-11T07:42:05;95197.25;;;26.06;68.87
28626;BME280;18905;42.668;23.364;2022-08-11T07:44:31;95167.22;;;26.04;64.17
28626;BME280;18905;42.668;23.364;2022-08-11T07:47:18;95169.38;;;26.20;68.65
28626;BME280;18905;42.668;23.364;2022-08-11T07:50:03;95136.31;;;27.15;62.36
28626;BME280;18905;42.668;23.364;2022-08-11T07:52:48;95154.00;;;26.98;61.99
28626;BME280;18905;42.668;23.364;2022-08-11T07:55:15;95197.22;;;27.22;62.05
28626;BME280;18905;42.668;23.364;2022-08-11T07:57:44;95169.88;;;27.67;59.09
28626;BME280;18905;42.668;23.364;2022-08-11T08:00:35;95178.53;;;28.31;54.93
28626;BME280;18905;42.668;23.364;2022-08-11T08:03:20;95180.13;;;28.67;54.44
28626;BME280;18905;42.668;23.364;2022-08-11T08:06:05;95191.44;;;28.41;53.36
28626;BME280;18905;42.668;23.364;2022-08-11T08:08:49;95187.09;;;28.40;56.75
28626;BME280;18905;42.668;23.364;2022-08-11T08:11:34;95191.31;;;29.00;51.81
28626;BME280;18905;42.668;23.364;2022-08-11T08:14:18;95174.25;;;29.17;50.80
28626;BME280;18905;42.668;23.364;2022-08-11T08:17:03;95162.28;;;28.85;50.46
28626;BME280;18905;42.668;23.364;2022-08-11T08:19:47;95169.53;;;29.14;50.99
28626;BME280;18905;42.668;23.364;2022-08-11T08:22:17;95176.41;;;29.42;50.45
28626;BME280;18905;42.668;23.364;2022-08-11T08:24:44;95179.25;;;28.35;51.98
28626;BME280;18905;42.668;23.364;2022-08-11T08:27:12;95167.31;;;27.99;54.61
28626;BME280;18905;42.668;23.364;2022-08-11T08:29:38;95168.97;;;26.78;62.91
28626;BME280;18905;42.668;23.364;2022-08-11T08:32:24;95173.88;;;27.43;58.29
28626;BME280;18905;42.668;23.364;2022-08-11T08:34:52;95115.88;;;27.71;57.09
28626;BME280;18905;42.668;23.364;2022-08-11T08:37:21;95166.31;;;28.48;55.55
28626;BME280;18905;42.668;23.364;2022-08-11T08:39:54;95169.38;;;29.05;51.22
28626;BME280;18905;42.668;23.364;2022-08-11T08:42:24;95156.53;;;28.76;51.27
28626;BME280;18905;42.668;23.364;2022-08-11T08:45:00;95158.19;;;28.18;55.67
28626;BME280;18905;42.668;23.364;2022-08-11T08:47:28;95123.66;;;28.19;55.29
28626;BME280;18905;42.668;23.364;2022-08-11T08:50:00;95129.88;;;27.22;56.00
28626;BME280;18905;42.668;23.364;2022-08-11T08:52:30;95134.91;;;28.31;53.49
28626;BME280;18905;42.668;23.364;2022-08-11T08:55:01;95165.97;;;27.41;53.79
28626;BME280;18905;42.668;23.364;2022-08-11T08:57:30;95161.75;;;27.56;52.96
28626;BME280;18905;42.668;23.364;2022-08-11T08:59:57;95136.47;;;27.93;53.24
28626;BME280;18905;42.668;23.364;2022-08-11T09:02:25;95116.28;;;27.93;52.24
28626;BME280;18905;42.668;23.364;2022-08-11T09:04:51;95102.31;;;28.16;52.93
28626;BME280;18905;42.668;23.364;2022-08-11T09:07:18;95101.22;;;28.10;52.26
28626;BME280;18905;42.668;23.364;2022-08-11T09:09:49;95099.91;;;27.98;53.09
28626;BME280;18905;42.668;23.364;2022-08-11T09:12:17;95131.00;;;27.90;54.99
28626;BME280;18905;42.668;23.364;2022-08-11T09:14:46;95145.28;;;28.27;55.35
28626;BME280;18905;42.668;23.364;2022-08-11T09:17:29;95128.53;;;28.51;55.52
28626;BME280;18905;42.668;23.364;2022-08-11T09:20:16;95144.22;;;28.41;55.89
28626;BME280;18905;42.668;23.364;2022-08-11T09:22:43;95139.53;;;27.99;57.57
28626;BME280;18905;42.668;23.364;2022-08-11T09:25:30;95141.75;;;27.88;57.45
28626;BME280;18905;42.668;23.364;2022-08-11T09:28:17;95147.91;;;28.15;58.22
28626;BME280;18905;42.668;23.364;2022-08-11T09:30:44;95083.78;;;27.31;55.66
28626;BME280;18905;42.668;23.364;2022-08-11T09:33:14;95145.34;;;28.24;53.75
28626;BME280;18905;42.668;23.364;2022-08-11T09:35:40;95124.50;;;28.71;50.63
28626;BME280;18905;42.668;23.364;2022-08-11T09:38:12;95131.00;;;28.65;51.27
28626;BME280;18905;42.668;23.364;2022-08-11T09:40:56;95135.78;;;28.96;48.50
28626;BME280;18905;42.668;23.364;2022-08-11T09:43:23;95092.59;;;28.43;51.56
28626;BME280;18905;42.668;23.364;2022-08-11T09:46:08;95101.66;;;28.64;51.38
28626;BME280;18905;42.668;23.364;2022-08-11T09:48:44;95129.72;;;29.33;49.76
28626;BME280;18905;42.668;23.364;2022-08-11T09:51:11;95122.09;;;29.05;50.82
28626;BME280;18905;42.668;23.364;2022-08-11T09:53:40;95119.06;;;29.00;50.42
28626;BME280;18905;42.668;23.364;2022-08-11T09:56:10;95056.69;;;27.78;51.87
28626;BME280;18905;42.668;23.364;2022-08-11T09:58:54;95113.16;;;28.46;53.31
28626;BME280;18905;42.668;23.364;2022-08-11T10:01:22;95051.84;;;27.85;51.91
28626;BME280;18905;42.668;23.364;2022-08-11T10:04:03;95113.47;;;28.12;52.47
28626;BME280;18905;42.668;23.364;2022-08-11T10:06:30;95049.97;;;27.17;53.89
28626;BME280;18905;42.668;23.364;2022-08-11T10:09:19;95065.50;;;27.34;53.76
28626;BME280;18905;42.668;23.364;2022-08-11T10:11:46;95065.97;;;27.52;53.04
28626;BME280;18905;42.668;23.364;2022-08-11T10:14:14;95044.91;;;27.54;53.32
28626;BME280;18905;42.668;23.364;2022-08-11T10:17:05;95089.97;;;27.39;56.23
28626;BME280;18905;42.668;23.364;2022-08-11T10:19:32;95041.19;;;26.76;59.84
28626;BME280;18905;42.668;23.364;2022-08-11T10:21:59;95045.97;;;27.41;56.13
28626;BME280;18905;42.668;23.364;2022-08-11T10:24:43;95101.19;;;28.49;53.12
28626;BME280;18905;42.668;23.364;2022-08-11T10:27:28;95035.31;;;28.14;52.92
28626;BME280;18905;42.668;23.364;2022-08-11T10:29:54;95050.50;;;28.77;52.99
28626;BME280;18905;42.668;23.364;2022-08-11T10:32:39;95063.97;;;27.91;53.12
28626;BME280;18905;42.668;23.364;2022-08-11T10:35:23;95058.47;;;28.07;51.96
28626;BME280;18905;42.668;23.364;2022-08-11T10:37:52;95056.44;;;27.72;52.10
28626;BME280;18905;42.668;23.364;2022-08-11T10:40:20;95055.22;;;27.93;53.76
28626;BME280;18905;42.668;23.364;2022-08-11T10:42:50;95031.75;;;28.65;50.27
28626;BME280;18905;42.668;23.364;2022-08-11T10:45:43;95086.91;;;29.15;52.27
28626;BME280;18905;42.668;23.364;2022-08-11T10:48:37;95101.44;;;28.19;52.52
28626;BME280;18905;42.668;23.364;2022-08-11T10:51:03;95091.97;;;27.58;52.29
28626;BME280;18905;42.668;23.364;2022-08-11T10:53:45;95083.81;;;27.28;51.65
28626;BME280;18905;42.668;23.364;2022-08-11T10:56:33;95091.69;;;27.72;52.56
28626;BME280;18905;42.668;23.364;2022-08-11T10:59:18;94976.81;;;27.34;49.74
28626;BME280;18905;42.668;23.364;2022-08-11T11:01:45;95039.81;;;26.87;51.43
28626;BME280;18905;42.668;23.364;2022-08-11T11:04:14;95080.31;;;27.66;52.27
28626;BME280;18905;42.668;23.364;2022-08-11T11:06:51;95076.06;;;27.62;52.10
28626;BME280;18905;42.668;23.364;2022-08-11T11:09:25;95086.31;;;27.84;50.63
28626;BME280;18905;42.668;23.364;2022-08-11T11:11:57;95033.69;;;27.81;48.80
28626;BME280;18905;42.668;23.364;2022-08-11T11:14:42;95030.25;;;27.93;49.26
28626;BME280;18905;42.668;23.364;2022-08-11T11:17:32;95026.03;;;28.56;48.72
28626;BME280;18905;42.668;23.364;2022-08-11T11:20:25;95068.66;;;28.66;48.55
28626;BME280;18905;42.668;23.364;2022-08-11T11:22:54;95040.53;;;29.12;49.03
28626;BME280;18905;42.668;23.364;2022-08-11T11:25:37;95035.16;;;28.73;47.68
28626;BME280;18905;42.668;23.364;2022-08-11T11:28:31;95068.75;;;28.78;49.63
28626;BME280;18905;42.668;23.364;2022-08-11T11:36:38;95033.75;;;28.13;49.63
28626;BME280;18905;42.668;23.364;2022-08-11T11:39:06;95068.03;;;28.74;49.60
28626;BME280;18905;42.668;23.364;2022-08-11T11:41:32;95030.16;;;28.96;46.47
28626;BME280;18905;42.668;23.364;2022-08-11T11:43:58;95075.44;;;29.13;46.58
28626;BME280;18905;42.668;23.364;2022-08-11T11:46:26;95020.50;;;28.20;51.26
28626;BME280;18905;42.668;23.364;2022-08-11T11:48:53;95071.06;;;27.73;54.90
28626;BME280;18905;42.668;23.364;2022-08-11T11:51:22;95048.25;;;27.26;57.35
28626;BME280;18905;42.668;23.364;2022-08-11T11:53:48;95060.09;;;27.27;57.40
28626;BME280;18905;42.668;23.364;2022-08-11T11:56:15;95059.44;;;27.19;57.84
28626;BME280;18905;42.668;23.364;2022-08-11T11:58:41;95018.75;;;27.13;57.33
28626;BME280;18905;42.668;23.364;2022-08-11T12:01:26;95012.25;;;27.00;57.74
28626;BME280;18905;42.668;23.364;2022-08-11T12:03:53;95007.31;;;27.11;56.60
28626;BME280;18905;42.668;23.364;2022-08-11T12:06:22;95069.00;;;27.38;55.80
28626;BME280;18905;42.668;23.364;2022-08-11T12:08:50;95067.41;;;26.94;57.19
28626;BME280;18905;42.668;23.364;2022-08-11T12:11:19;95051.72;;;26.84;58.36
28626;BME280;18905;42.668;23.364;2022-08-11T12:14:05;95009.47;;;26.31;59.67
28626;BME280;18905;42.668;23.364;2022-08-11T12:16:33;95005.22;;;26.49;58.14
28626;BME280;18905;42.668;23.364;2022-08-11T12:19:00;94993.09;;;26.89;58.39
28626;BME280;18905;42.668;23.364;2022-08-11T12:21:28;95028.63;;;27.14;56.04
28626;BME280;18905;42.668;23.364;2022-08-11T12:23:55;95015.97;;;27.36;57.53
28626;BME280;18905;42.668;23.364;2022-08-11T12:26:39;95048.16;;;27.07;58.77
28626;BME280;18905;42.668;23.364;2022-08-11T12:29:16;95046.19;;;26.61;61.58
28626;BME280;18905;42.668;23.364;2022-08-11T12:31:44;94981.50;;;25.99;62.96
28626;BME280;18905;42.668;23.364;2022-08-11T12:34:13;94973.03;;;25.83;63.43
28626;BME280;18905;42.668;23.364;2022-08-11T12:36:48;95052.09;;;26.37;66.05
28626;BME280;18905;42.668;23.364;2022-08-11T12:39:18;95051.97;;;26.70;62.71
28626;BME280;18905;42.668;23.364;2022-08-11T12:41:44;95002.66;;;26.12;61.10
28626;BME280;18905;42.668;23.364;2022-08-11T12:44:30;95052.09;;;26.63;61.01
28626;BME280;18905;42.668;23.364;2022-08-11T12:47:18;95048.84;;;26.68;60.14
28626;BME280;18905;42.668;23.364;2022-08-11T12:49:47;94988.34;;;26.17;60.68
28626;BME280;18905;42.668;23.364;2022-08-11T12:52:43;95042.41;;;26.25;62.34
28626;BME280;18905;42.668;23.364;2022-08-11T12:55:12;95065.56;;;26.08;66.09
28626;BME280;18905;42.668;23.364;2022-08-11T12:57:59;95020.53;;;25.78;69.58
28626;BME280;18905;42.668;23.364;2022-08-11T13:00:44;95011.84;;;26.06;68.26
28626;BME280;18905;42.668;23.364;2022-08-11T13:03:31;94983.78;;;25.47;68.82
28626;BME280;18905;42.668;23.364;2022-08-11T13:06:17;95063.34;;;25.66;70.96
28626;BME280;18905;42.668;23.364;2022-08-11T13:08:44;95053.06;;;25.33;74.77
28626;BME280;18905;42.668;23.364;2022-08-11T13:11:11;95066.97;;;25.26;76.36
28626;BME280;18905;42.668;23.364;2022-08-11T13:13:56;95057.97;;;25.52;75.84
28626;BME280;18905;42.668;23.364;2022-08-11T13:16:26;95071.81;;;25.49;74.71
28626;BME280;18905;42.668;23.364;2022-08-11T13:18:54;94980.59;;;24.82;76.83
28626;BME280;18905;42.668;23.364;2022-08-11T13:21:21;95015.50;;;25.36;74.31
28626;BME280;18905;42.668;23.364;2022-08-11T13:23:50;94979.44;;;25.13;70.73
28626;BME280;18905;42.668;23.364;2022-08-11T13:26:16;94966.13;;;25.04;68.78
28626;BME280;18905;42.668;23.364;2022-08-11T13:28:42;94988.00;;;25.22;68.84
28626;BME280;18905;42.668;23.364;2022-08-11T13:31:07;95046.28;;;25.71;72.16
28626;BME280;18905;42.668;23.364;2022-08-11T13:33:49;95011.00;;;25.49;67.31
28626;BME280;18905;42.668;23.364;2022-08-11T13:36:19;95035.84;;;25.82;66.92
28626;BME280;18905;42.668;23.364;2022-08-11T13:38:46;95043.22;;;26.22;63.26
28626;BME280;18905;42.668;23.364;2022-08-11T13:41:12;95044.25;;;26.05;61.96
28626;BME280;18905;42.668;23.364;2022-08-11T13:43:57;95037.75;;;26.19;60.78
28626;BME280;18905;42.668;23.364;2022-08-11T13:46:24;95036.31;;;26.34;60.54
28626;BME280;18905;42.668;23.364;2022-08-11T13:48:53;95018.88;;;26.37;57.22
28626;BME280;18905;42.668;23.364;2022-08-11T13:51:20;95017.16;;;26.20;57.90
28626;BME280;18905;42.668;23.364;2022-08-11T13:54:06;95034.81;;;26.52;57.43
28626;BME280;18905;42.668;23.364;2022-08-11T13:56:34;95036.03;;;26.51;56.90
28626;BME280;18905;42.668;23.364;2022-08-11T13:59:01;95004.13;;;26.70;56.73
28626;BME280;18905;42.668;23.364;2022-08-11T14:01:33;95022.78;;;26.89;56.24
28626;BME280;18905;42.668;23.364;2022-08-11T14:04:07;95007.59;;;27.16;54.13
28626;BME280;18905;42.668;23.364;2022-08-11T14:06:34;95023.56;;;27.09;53.68
28626;BME280;18905;42.668;23.364;2022-08-11T14:09:02;95026.59;;;26.95;54.24
28626;BME280;18905;42.668;23.364;2022-08-11T14:11:29;95006.03;;;26.73;54.45
28626;BME280;18905;42.668;23.364;2022-08-11T14:14:20;95022.59;;;26.99;54.09
28626;BME280;18905;42.668;23.364;2022-08-11T14:16:47;95023.56;;;27.32;54.02
28626;BME280;18905;42.668;23.364;2022-08-11T14:19:15;95013.53;;;27.57;51.80
28626;BME280;18905;42.668;23.364;2022-08-11T14:21:44;95017.09;;;27.77;51.35
28626;BME280;18905;42.668;23.364;2022-08-11T14:24:30;94998.19;;;27.33;50.94
28626;BME280;18905;42.668;23.364;2022-08-11T14:26:56;95020.19;;;27.79;52.73
28626;BME280;18905;42.668;23.364;2022-08-11T14:29:24;94995.00;;;27.35;49.65
28626;BME280;18905;42.668;23.364;2022-08-11T14:31:52;95012.91;;;27.50;49.55
28626;BME280;18905;42.668;23.364;2022-08-11T14:34:21;94994.31;;;27.66;50.96
28626;BME280;18905;42.668;23.364;2022-08-11T14:36:55;95013.91;;;28.30;50.16
28626;BME280;18905;42.668;23.364;2022-08-11T14:39:26;95007.94;;;28.16;49.82
28626;BME280;18905;42.668;23.364;2022-08-11T14:41:55;95010.31;;;27.98;48.55
28626;BME280;18905;42.668;23.364;2022-08-11T14:44:42;95005.66;;;28.11;49.60
28626;BME280;18905;42.668;23.364;2022-08-11T14:47:30;94993.59;;;28.01;50.22
28626;BME280;18905;42.668;23.364;2022-08-11T14:49:58;95009.03;;;27.83;50.81
28626;BME280;18905;42.668;23.364;2022-08-11T14:52:27;95000.78;;;27.60;51.56
28626;BME280;18905;42.668;23.364;2022-08-11T14:54:54;94993.84;;;27.32;53.30
28626;BME280;18905;42.668;23.364;2022-08-11T14:57:39;94997.50;;;27.06;55.70
28626;BME280;18905;42.668;23.364;2022-08-11T15:00:08;94980.91;;;26.83;56.32
28626;BME280;18905;42.668;23.364;2022-08-11T15:02:38;95006.34;;;27.21;54.58
28626;BME280;18905;42.668;23.364;2022-08-11T15:05:23;94997.72;;;26.73;55.49
28626;BME280;18905;42.668;23.364;2022-08-11T15:07:51;94970.88;;;26.70;55.77
28626;BME280;18905;42.668;23.364;2022-08-11T15:10:18;94990.19;;;27.16;54.16
28626;BME280;18905;42.668;23.364;2022-08-11T15:12:45;94968.69;;;27.23;54.56
28626;BME280;18905;42.668;23.364;2022-08-11T15:15:11;94979.44;;;27.18;54.42
28626;BME280;18905;42.668;23.364;2022-08-11T15:17:59;94979.84;;;26.77;57.21
28626;BME280;18905;42.668;23.364;2022-08-11T15:20:26;94981.13;;;26.46;58.66
28626;BME280;18905;42.668;23.364;2022-08-11T15:23:11;94989.72;;;26.06;60.34
28626;BME280;18905;42.668;23.364;2022-08-11T15:26:24;94987.13;;;25.92;60.29
28626;BME280;18905;42.668;23.364;2022-08-11T15:29:06;94996.25;;;25.89;60.47
28626;BME280;18905;42.668;23.364;2022-08-11T15:31:51;94973.97;;;25.73;60.29
28626;BME280;18905;42.668;23.364;2022-08-11T15:34:35;94995.25;;;25.76;60.33
28626;BME280;18905;42.668;23.364;2022-08-11T15:37:20;94981.34;;;25.83;60.70
28626;BME280;18905;42.668;23.364;2022-08-11T15:40:12;94996.19;;;25.96;59.06
28626;BME280;18905;42.668;23.364;2022-08-11T15:43:37;94987.09;;;25.95;58.21
28626;BME280;18905;42.668;23.364;2022-08-11T15:46:30;94976.03;;;25.95;57.55
28626;BME280;18905;42.668;23.364;2022-08-11T15:49:03;94983.06;;;26.00;58.68
28626;BME280;18905;42.668;23.364;2022-08-11T15:51:35;94975.81;;;25.79;59.38
28626;BME280;18905;42.668;23.364;2022-08-11T15:54:10;94988.81;;;25.56;60.56
28626;BME280;18905;42.668;23.364;2022-08-11T15:56:41;94967.38;;;25.33;61.42
28626;BME280;18905;42.668;23.364;2022-08-11T15:59:10;94983.66;;;25.28;62.28
28626;BME280;18905;42.668;23.364;2022-08-11T16:01:57;95006.13;;;25.30;64.34
28626;BME280;18905;42.668;23.364;2022-08-11T16:04:55;94998.63;;;25.30;63.77
28626;BME280;18905;42.668;23.364;2022-08-11T16:07:25;94980.75;;;25.01;67.66
28626;BME280;18905;42.668;23.364;2022-08-11T16:09:57;94993.22;;;25.16;69.46
28626;BME280;18905;42.668;23.364;2022-08-11T16:12:59;95010.81;;;25.33;68.09
28626;BME280;18905;42.668;23.364;2022-08-11T16:18:19;95004.97;;;25.24;66.26
28626;BME280;18905;42.668;23.364;2022-08-11T16:20:45;95002.28;;;25.17;67.66
28626;BME280;18905;42.668;23.364;2022-08-11T16:23:14;95002.09;;;25.01;65.76
28626;BME280;18905;42.668;23.364;2022-08-11T16:25:41;94986.47;;;24.84;65.50
28626;BME280;18905;42.668;23.364;2022-08-11T16:28:09;95012.50;;;24.86;65.63
28626;BME280;18905;42.668;23.364;2022-08-11T16:30:39;95002.19;;;24.90;66.34
28626;BME280;18905;42.668;23.364;2022-08-11T16:33:06;95006.41;;;25.02;65.70
28626;BME280;18905;42.668;23.364;2022-08-11T16:35:35;95009.22;;;24.98;65.03
28626;BME280;18905;42.668;23.364;2022-08-11T16:38:23;95006.56;;;24.88;64.60
28626;BME280;18905;42.668;23.364;2022-08-11T16:41:10;95009.03;;;24.79;64.18
28626;BME280;18905;42.668;23.364;2022-08-11T16:43:46;95006.47;;;24.95;66.62
28626;BME280;18905;42.668;23.364;2022-08-11T16:46:31;94997.63;;;24.77;64.10
28626;BME280;18905;42.668;23.364;2022-08-11T16:49:18;94995.22;;;24.79;67.33
28626;BME280;18905;42.668;23.364;2022-08-11T16:51:45;95004.44;;;25.02;65.27
28626;BME280;18905;42.668;23.364;2022-08-11T16:54:11;95020.06;;;25.16;64.42
28626;BME280;18905;42.668;23.364;2022-08-11T16:56:43;94997.97;;;24.79;63.60
28626;BME280;18905;42.668;23.364;2022-08-11T16:59:16;95021.81;;;24.99;64.18
28626;BME280;18905;42.668;23.364;2022-08-11T17:02:15;95020.28;;;24.95;65.49
28626;BME280;18905;42.668;23.364;2022-08-11T17:04:49;95030.22;;;24.89;65.10
28626;BME280;18905;42.668;23.364;2022-08-11T17:07:36;95036.38;;;25.03;63.73
28626;BME280;18905;42.668;23.364;2022-08-11T17:10:26;95022.91;;;25.09;63.91